Time;durP1;ratioP1;P1;durP2;ratioP2;P2;SDS_P1;SDS_P2;PMS_P1;PMS_P2;Temp;Humidity;BMP_temperature;BMP_pressure;BME280_temperature;BME280_humidity;BME280_pressure;Samples;Min_cycle;Max_cycle;Signal;HPM_P1;HPM_P2
2021/01/12 00:05:30;;;;;;;17.77;14.05;;;;;;;;;;4511332;28;20118;-49
2021/01/12 00:08:07;;;;;;;21.20;13.93;;;;;;;;;;4218702;34;20193;-44
2021/01/12 00:10:40;;;;;;;17.02;13.52;;;;;;;;;;4209408;34;20118;-48
2021/01/12 00:13:16;;;;;;;18.02;13.93;;;;;;;;;;4204849;34;20113;-48
2021/01/12 00:15:46;;;;;;;20.30;14.38;;;;;;;;;;4196159;34;20102;-50
2021/01/12 00:18:20;;;;;;;17.35;14.10;;;;;;;;;;4197757;34;20120;-45
2021/01/12 00:20:52;;;;;;;17.45;13.30;;;;;;;;;;4204362;34;20279;-45
2021/01/12 00:23:25;;;;;;;20.08;13.60;;;;;;;;;;4204755;34;20111;-50
2021/01/12 00:25:57;;;;;;;20.77;13.73;;;;;;;;;;4204329;34;20140;-49
2021/01/12 00:28:28;;;;;;;17.87;13.65;;;;;;;;;;4204689;34;20105;-47
2021/01/12 00:31:01;;;;;;;18.00;13.50;;;;;;;;;;4204506;34;20413;-48
2021/01/12 00:33:32;;;;;;;19.35;13.35;;;;;;;;;;4204548;34;20126;-46
2021/01/12 00:36:08;;;;;;;19.02;14.05;;;;;;;;;;4204280;34;20466;-48
2021/01/12 00:38:36;;;;;;;15.70;13.07;;;;;;;;;;4202832;34;20212;-50
2021/01/12 00:41:06;;;;;;;18.10;13.80;;;;;;;;;;4204103;34;20105;-46
2021/01/12 00:43:35;;;;;;;16.87;13.30;;;;;;;;;;4204486;34;20501;-51
2021/01/12 00:46:01;;;;;;;17.42;14.45;;;;;;;;;;4191267;34;20740;-51
2021/01/12 00:48:28;;;;;;;15.10;13.18;;;;;;;;;;4204355;34;20121;-49
2021/01/12 00:50:57;;;;;;;16.35;13.55;;;;;;;;;;4204065;34;20210;-54
2021/01/12 00:53:23;;;;;;;16.00;13.00;;;;;;;;;;4205030;34;20449;-46
2021/01/12 00:55:51;;;;;;;17.52;13.07;;;;;;;;;;4206422;34;20113;-46
2021/01/12 00:58:17;;;;;;;14.55;12.35;;;;;;;;;;4207495;34;20094;-49
2021/01/12 01:00:45;;;;;;;14.15;12.02;;;;;;;;;;4206827;34;20198;-45
2021/01/12 01:03:12;;;;;;;15.38;12.13;;;;;;;;;;4206461;34;20501;-49
2021/01/12 01:05:38;;;;;;;15.35;11.75;;;;;;;;;;4205902;34;20113;-50
2021/01/12 01:08:05;;;;;;;14.25;11.90;;;;;;;;;;4206311;34;20116;-50
2021/01/12 01:10:31;;;;;;;14.73;11.75;;;;;;;;;;4206117;34;20277;-49
2021/01/12 01:12:57;;;;;;;13.88;11.32;;;;;;;;;;4206304;34;20141;-46
2021/01/12 01:15:27;;;;;;;14.43;11.95;;;;;;;;;;4206332;34;20524;-53
2021/01/12 01:17:54;;;;;;;15.00;11.40;;;;;;;;;;4206339;34;20738;-51
2021/01/12 01:20:21;;;;;;;14.45;11.95;;;;;;;;;;4206118;34;20101;-50
2021/01/12 01:22:47;;;;;;;14.48;12.13;;;;;;;;;;4193192;34;20105;-46
2021/01/12 01:25:14;;;;;;;13.30;10.48;;;;;;;;;;4206255;34;20166;-50
2021/01/12 01:27:40;;;;;;;14.05;11.70;;;;;;;;;;4206281;34;20113;-49
2021/01/12 01:30:07;;;;;;;12.52;11.23;;;;;;;;;;4206268;34;20214;-50
2021/01/12 01:32:34;;;;;;;12.63;10.45;;;;;;;;;;4206075;34;20517;-51
2021/01/12 01:35:00;;;;;;;12.90;11.50;;;;;;;;;;4205871;34;20117;-48
2021/01/12 01:37:27;;;;;;;13.15;11.75;;;;;;;;;;4206183;34;20129;-50
2021/01/12 01:39:53;;;;;;;13.68;11.65;;;;;;;;;;4205921;34;20113;-44
2021/01/12 01:42:20;;;;;;;14.50;11.90;;;;;;;;;;4206140;34;20202;-49
2021/01/12 01:44:47;;;;;;;12.68;10.98;;;;;;;;;;4204277;34;20548;-50
2021/01/12 01:47:13;;;;;;;14.60;12.02;;;;;;;;;;4206044;34;20105;-51
2021/01/12 01:49:40;;;;;;;13.75;11.32;;;;;;;;;;4192967;34;20521;-49
2021/01/12 01:52:07;;;;;;;14.50;12.23;;;;;;;;;;4205838;34;20106;-52
2021/01/12 01:54:33;;;;;;;14.27;11.75;;;;;;;;;;4192984;34;20141;-50
2021/01/12 01:57:00;;;;;;;12.82;11.05;;;;;;;;;;4192940;34;20136;-48
2021/01/12 01:59:28;;;;;;;14.02;11.85;;;;;;;;;;4205815;34;20220;-47
2021/01/12 02:01:54;;;;;;;14.77;11.57;;;;;;;;;;4192893;34;20102;-48
2021/01/12 02:04:27;;;;;;;14.27;11.25;;;;;;;;;;4205693;34;21593;-52
2021/01/12 02:06:54;;;;;;;14.98;11.52;;;;;;;;;;4205991;34;20102;-47
2021/01/12 02:09:37;;;;;;;11.40;10.20;;;;;;;;;;4192761;34;20137;-47
2021/01/12 02:12:04;;;;;;;13.62;11.25;;;;;;;;;;4205676;34;20114;-50
2021/01/12 02:14:33;;;;;;;13.45;11.45;;;;;;;;;;4205593;34;20517;-51
2021/01/12 02:16:59;;;;;;;13.48;11.12;;;;;;;;;;4205889;34;20094;-47
2021/01/12 02:19:27;;;;;;;13.50;11.70;;;;;;;;;;4205679;34;20442;-45
2021/01/12 02:21:58;;;;;;;14.40;11.98;;;;;;;;;;4205750;34;20105;-47
2021/01/12 02:24:27;;;;;;;13.43;11.65;;;;;;;;;;4192728;34;20110;-44
2021/01/12 02:26:54;;;;;;;13.23;11.27;;;;;;;;;;4181596;34;20567;-42
2021/01/12 02:29:21;;;;;;;14.40;11.45;;;;;;;;;;4192564;34;20777;-50
2021/01/12 02:31:47;;;;;;;13.30;11.82;;;;;;;;;;4205480;34;20110;-47
2021/01/12 02:34:16;;;;;;;15.32;12.20;;;;;;;;;;4192468;34;20141;-47
2021/01/12 02:36:44;;;;;;;13.40;11.25;;;;;;;;;;4193041;34;20097;-48
2021/01/12 02:39:14;;;;;;;13.80;11.30;;;;;;;;;;4192787;34;20110;-54
2021/01/12 02:41:42;;;;;;;14.15;11.60;;;;;;;;;;4205598;34;20509;-50
2021/01/12 02:44:24;;;;;;;14.65;11.73;;;;;;;;;;4205409;34;20208;-48
2021/01/12 02:46:54;;;;;;;15.88;11.50;;;;;;;;;;4205326;34;20520;-55
2021/01/12 02:49:27;;;;;;;12.95;11.52;;;;;;;;;;4176460;34;20094;-45
2021/01/12 02:51:57;;;;;;;12.70;11.15;;;;;;;;;;4194363;34;20501;-49
2021/01/12 02:54:24;;;;;;;17.50;12.18;;;;;;;;;;4196123;34;20101;-49
2021/01/12 02:56:52;;;;;;;14.87;12.10;;;;;;;;;;4190298;34;20521;-49
2021/01/12 02:59:19;;;;;;;14.60;11.95;;;;;;;;;;4191403;34;20177;-45
2021/01/12 03:01:46;;;;;;;16.15;12.70;;;;;;;;;;4191222;34;20117;-45
2021/01/12 03:04:12;;;;;;;14.68;12.48;;;;;;;;;;4191001;34;20131;-50
2021/01/12 03:06:38;;;;;;;15.15;12.57;;;;;;;;;;4191291;34;20185;-53
2021/01/12 03:09:05;;;;;;;22.73;20.37;;;;;;;;;;4191377;34;20112;-49
2021/01/12 03:11:31;;;;;;;16.52;14.40;;;;;;;;;;4179010;34;20485;-47
2021/01/12 03:13:58;;;;;;;16.45;14.60;;;;;;;;;;4191437;34;20142;-52
2021/01/12 03:16:25;;;;;;;13.40;12.00;;;;;;;;;;4178277;34;20209;-48
2021/01/12 03:18:52;;;;;;;14.23;11.88;;;;;;;;;;4189996;34;20224;-48
2021/01/12 03:21:19;;;;;;;15.50;11.23;;;;;;;;;;4191248;34;20121;-52
2021/01/12 03:23:45;;;;;;;13.73;10.95;;;;;;;;;;4191441;34;20133;-45
2021/01/12 03:26:12;;;;;;;15.77;11.77;;;;;;;;;;4190973;34;20132;-54
2021/01/12 03:28:39;;;;;;;14.35;11.75;;;;;;;;;;4191453;34;20114;-46
2021/01/12 03:31:05;;;;;;;13.98;11.63;;;;;;;;;;4191337;34;20524;-48
2021/01/12 03:33:32;;;;;;;15.05;11.80;;;;;;;;;;4191351;34;20514;-50
2021/01/12 03:36:00;;;;;;;14.73;12.15;;;;;;;;;;4190916;34;20130;-49
2021/01/12 03:38:26;;;;;;;14.15;12.18;;;;;;;;;;4191356;34;20099;-45
2021/01/12 03:40:54;;;;;;;14.70;11.88;;;;;;;;;;4191147;34;20427;-49
2021/01/12 03:43:21;;;;;;;14.48;11.52;;;;;;;;;;4191255;34;20110;-48
2021/01/12 03:45:47;;;;;;;14.85;11.65;;;;;;;;;;4191240;34;20109;-50
2021/01/12 03:48:15;;;;;;;14.30;11.77;;;;;;;;;;4191279;34;20559;-50
2021/01/12 03:50:44;;;;;;;17.77;11.52;;;;;;;;;;4191111;34;20107;-48
2021/01/12 03:53:11;;;;;;;13.75;11.35;;;;;;;;;;4191144;34;20133;-47
2021/01/12 03:55:38;;;;;;;13.50;11.77;;;;;;;;;;4191266;34;20520;-46
2021/01/12 03:58:04;;;;;;;16.25;11.52;;;;;;;;;;4190858;34;20102;-49
2021/01/12 04:00:32;;;;;;;14.35;10.90;;;;;;;;;;4190704;34;20105;-45
2021/01/12 04:03:00;;;;;;;15.07;10.95;;;;;;;;;;4190705;34;20118;-47
2021/01/12 04:05:29;;;;;;;14.80;10.70;;;;;;;;;;4178040;34;20109;-48
2021/01/12 04:07:56;;;;;;;14.52;10.75;;;;;;;;;;4191060;34;20688;-46
2021/01/12 04:10:28;;;;;;;14.48;11.35;;;;;;;;;;4190862;34;20117;-49
2021/01/12 04:12:54;;;;;;;12.75;11.05;;;;;;;;;;4166963;34;20095;-49
2021/01/12 04:15:21;;;;;;;14.57;11.30;;;;;;;;;;4190883;34;20201;-47
2021/01/12 04:17:47;;;;;;;13.93;11.50;;;;;;;;;;4190987;34;20506;-48
2021/01/12 04:20:15;;;;;;;12.23;10.23;;;;;;;;;;4177869;34;20401;-48
2021/01/12 04:22:41;;;;;;;14.25;11.18;;;;;;;;;;4178148;34;20177;-50
2021/01/12 04:25:09;;;;;;;13.07;11.12;;;;;;;;;;4190576;34;20120;-46
2021/01/12 04:27:35;;;;;;;14.15;10.60;;;;;;;;;;4190722;34;20117;-48
2021/01/12 04:30:04;;;;;;;12.25;10.40;;;;;;;;;;4192699;34;20385;-49
2021/01/12 04:32:30;;;;;;;18.12;12.07;;;;;;;;;;4192934;34;20125;-49
2021/01/12 04:34:57;;;;;;;12.15;10.77;;;;;;;;;;4192801;34;20090;-48
2021/01/12 04:37:23;;;;;;;15.85;11.20;;;;;;;;;;4192841;34;20110;-48
2021/01/12 04:39:49;;;;;;;12.75;10.57;;;;;;;;;;4192478;34;20108;-48
2021/01/12 04:42:16;;;;;;;13.60;10.80;;;;;;;;;;4192576;34;20102;-52
2021/01/12 04:44:43;;;;;;;12.37;10.43;;;;;;;;;;4192645;34;20090;-53
2021/01/12 04:47:10;;;;;;;14.52;11.00;;;;;;;;;;4192740;34;20545;-49
2021/01/12 04:49:37;;;;;;;15.38;10.50;;;;;;;;;;4192295;34;20098;-46
2021/01/12 04:52:04;;;;;;;11.68;9.52;;;;;;;;;;4192663;34;20106;-49
2021/01/12 04:54:36;;;;;;;11.20;9.85;;;;;;;;;;4192562;34;20125;-49
2021/01/12 04:57:03;;;;;;;14.70;11.82;;;;;;;;;;4179957;34;20113;-52
2021/01/12 04:59:30;;;;;;;12.70;10.00;;;;;;;;;;4192498;34;20102;-48
2021/01/12 05:01:58;;;;;;;14.30;11.73;;;;;;;;;;4179968;34;20194;-50
2021/01/12 05:04:24;;;;;;;16.50;13.65;;;;;;;;;;4179869;34;20149;-48
2021/01/12 05:06:54;;;;;;;13.55;11.10;;;;;;;;;;4192533;34;20125;-50
2021/01/12 05:09:22;;;;;;;15.60;13.73;;;;;;;;;;4192214;34;20146;-51
2021/01/12 05:11:53;;;;;;;15.63;12.02;;;;;;;;;;4192624;34;20114;-53
2021/01/12 05:14:21;;;;;;;14.05;10.63;;;;;;;;;;4180048;34;20148;-45
2021/01/12 05:16:55;;;;;;;12.73;10.48;;;;;;;;;;4179633;34;20117;-53
2021/01/12 05:19:32;;;;;;;12.25;10.23;;;;;;;;;;4192397;34;20648;-45
2021/01/12 05:22:03;;;;;;;12.10;9.75;;;;;;;;;;4192504;34;20098;-50
2021/01/12 05:24:30;;;;;;;14.40;10.18;;;;;;;;;;4179377;34;20128;-46
2021/01/12 05:27:10;;;;;;;12.25;10.43;;;;;;;;;;4192494;34;20114;-52
2021/01/12 05:29:42;;;;;;;13.30;11.05;;;;;;;;;;4192218;34;20649;-44
2021/01/12 05:32:10;;;;;;;14.52;11.10;;;;;;;;;;4179420;34;20103;-50
2021/01/12 05:34:38;;;;;;;12.07;9.73;;;;;;;;;;4192060;34;20137;-50
2021/01/12 05:37:06;;;;;;;13.70;10.52;;;;;;;;;;4179634;34;20113;-44
2021/01/12 05:39:38;;;;;;;12.30;10.27;;;;;;;;;;4168137;34;20094;-54
2021/01/12 05:42:06;;;;;;;12.88;9.40;;;;;;;;;;4191935;34;20109;-49
2021/01/12 05:44:36;;;;;;;15.98;11.48;;;;;;;;;;4179567;34;20102;-51
2021/01/12 05:47:02;;;;;;;13.20;11.25;;;;;;;;;;4191985;34;20086;-48
2021/01/12 05:49:31;;;;;;;16.35;13.18;;;;;;;;;;4192146;34;20138;-51
2021/01/12 05:51:57;;;;;;;15.07;12.80;;;;;;;;;;4191766;34;20145;-49
2021/01/12 05:54:33;;;;;;;19.40;12.98;;;;;;;;;;4192229;34;20619;-49
2021/01/12 05:57:04;;;;;;;17.98;14.87;;;;;;;;;;4192191;34;20092;-45
2021/01/12 05:59:37;;;;;;;22.08;16.30;;;;;;;;;;4191794;34;20205;-51
2021/01/12 06:02:06;;;;;;;20.92;17.00;;;;;;;;;;4191779;34;20126;-47
2021/01/12 06:04:33;;;;;;;18.27;15.38;;;;;;;;;;4178932;34;20113;-45
2021/01/12 06:07:02;;;;;;;16.75;14.73;;;;;;;;;;4179429;34;20548;-48
2021/01/12 06:09:29;;;;;;;14.55;13.05;;;;;;;;;;4191932;34;20118;-50
2021/01/12 06:11:57;;;;;;;16.30;11.32;;;;;;;;;;4191932;34;20210;-51
2021/01/12 06:14:26;;;;;;;12.40;10.07;;;;;;;;;;4191879;34;20104;-45
2021/01/12 06:16:55;;;;;;;12.30;10.77;;;;;;;;;;4192103;34;20136;-45
2021/01/12 06:19:30;;;;;;;15.10;9.93;;;;;;;;;;4191625;34;20106;-50
2021/01/12 06:22:19;;;;;;;12.50;10.13;;;;;;;;;;4191998;34;20113;-48
2021/01/12 06:24:53;;;;;;;12.27;10.02;;;;;;;;;;4191840;34;20118;-44
2021/01/12 06:27:29;;;;;;;13.32;10.48;;;;;;;;;;4179345;34;20102;-48
2021/01/12 06:29:58;;;;;;;12.37;9.80;;;;;;;;;;4178813;34;20481;-48
2021/01/12 06:32:26;;;;;;;12.10;10.35;;;;;;;;;;4179046;34;20102;-45
2021/01/12 06:34:57;;;;;;;11.73;9.95;;;;;;;;;;4191747;34;20099;-45
2021/01/12 06:37:25;;;;;;;12.80;10.25;;;;;;;;;;4191911;34;20129;-46
2021/01/12 06:40:00;;;;;;;12.37;10.20;;;;;;;;;;4191747;34;20102;-51
2021/01/12 06:42:27;;;;;;;;;;;;;;;;;;4168109;34;20185;-45
2021/01/12 06:44:56;;;;;;;12.82;10.15;;;;;;;;;;4191620;34;19992;-45
2021/01/12 06:47:26;;;;;;;12.25;10.68;;;;;;;;;;4178785;34;20106;-45
2021/01/12 06:50:05;;;;;;;12.18;10.25;;;;;;;;;;4191577;34;20117;-50
2021/01/12 06:52:40;;;;;;;14.27;10.95;;;;;;;;;;4178479;34;20129;-45
2021/01/12 06:55:08;;;;;;;14.05;12.32;;;;;;;;;;4178723;34;20533;-49
2021/01/12 06:57:44;;;;;;;16.92;12.95;;;;;;;;;;4179119;34;20455;-50
2021/01/12 07:00:12;;;;;;;17.80;12.30;;;;;;;;;;4179286;34;20137;-46
2021/01/12 07:02:42;;;;;;;15.20;12.10;;;;;;;;;;4179160;34;20136;-49
2021/01/12 07:05:15;;;;;;;17.25;13.98;;;;;;;;;;4190604;34;20150;-45
2021/01/12 07:07:49;;;;;;;15.90;12.68;;;;;;;;;;4191654;34;20098;-53
2021/01/12 07:10:22;;;;;;;13.40;10.80;;;;;;;;;;4191392;34;20129;-48
2021/01/12 07:12:50;;;;;;;16.37;11.70;;;;;;;;;;4191401;34;20118;-45
2021/01/12 07:15:17;;;;;;;15.23;11.27;;;;;;;;;;4191557;34;20106;-49
2021/01/12 07:18:00;;;;;;;14.10;11.70;;;;;;;;;;4191459;34;20477;-51
2021/01/12 07:20:46;;;;;;;14.10;11.18;;;;;;;;;;4191301;34;20130;-51
2021/01/12 07:23:17;;;;;;;12.90;10.40;;;;;;;;;;4191543;34;20115;-49
2021/01/12 07:25:46;;;;;;;14.27;11.05;;;;;;;;;;4178692;34;20121;-50
2021/01/12 07:28:17;;;;;;;13.38;9.93;;;;;;;;;;4191478;34;20275;-50
2021/01/12 07:30:58;;;;;;;11.00;9.45;;;;;;;;;;4191326;34;20556;-51
2021/01/12 07:33:30;;;;;;;12.23;9.68;;;;;;;;;;4191365;34;20608;-49
2021/01/12 07:36:00;;;;;;;11.60;9.90;;;;;;;;;;4190980;34;20521;-54
2021/01/12 07:38:34;;;;;;;12.63;9.38;;;;;;;;;;4191371;34;20101;-49
2021/01/12 07:41:23;;;;;;;13.18;10.02;;;;;;;;;;4178902;34;20113;-50
2021/01/12 07:43:52;;;;;;;11.65;10.07;;;;;;;;;;4179436;34;20210;-52
2021/01/12 07:46:25;;;;;;;13.38;9.68;;;;;;;;;;4191259;34;20470;-48
2021/01/12 07:48:57;;;;;;;10.90;9.30;;;;;;;;;;4179144;34;20098;-48
2021/01/12 07:51:29;;;;;;;12.45;10.10;;;;;;;;;;4167099;34;20097;-45
2021/01/12 07:53:59;;;;;;;12.65;10.38;;;;;;;;;;4167198;34;20117;-52
2021/01/12 07:56:29;;;;;;;17.73;13.73;;;;;;;;;;4178793;34;20134;-46
2021/01/12 07:59:02;;;;;;;15.57;13.38;;;;;;;;;;4178751;34;20094;-48
2021/01/12 08:01:32;;;;;;;17.05;14.70;;;;;;;;;;4167700;34;20125;-49
2021/01/12 08:03:59;;;;;;;16.87;13.05;;;;;;;;;;4171394;34;20114;-50
2021/01/12 08:06:27;;;;;;;14.32;11.35;;;;;;;;;;4182811;34;20622;-53
2021/01/12 08:08:58;;;;;;;13.88;10.93;;;;;;;;;;4182823;34;20189;-50
2021/01/12 08:11:25;;;;;;;14.25;11.55;;;;;;;;;;4182986;34;20110;-48
2021/01/12 08:14:03;;;;;;;14.15;12.30;;;;;;;;;;4182654;34;20266;-55
2021/01/12 08:16:34;;;;;;;20.12;18.02;;;;;;;;;;4182919;34;20114;-51
2021/01/12 08:19:17;;;;;;;13.50;12.02;;;;;;;;;;4183657;34;20138;-53
2021/01/12 08:21:48;;;;;;;13.13;10.85;;;;;;;;;;4182913;34;20117;-49
2021/01/12 08:24:26;;;;;;;11.82;10.13;;;;;;;;;;4183374;34;20149;-52
2021/01/12 08:26:59;;;;;;;12.02;9.45;;;;;;;;;;4195568;34;20182;-49
2021/01/12 08:29:29;;;;;;;10.20;9.10;;;;;;;;;;4195162;34;20558;-50
2021/01/12 08:32:10;;;;;;;12.80;9.50;;;;;;;;;;4195328;34;20101;-51
2021/01/12 08:35:00;;;;;;;11.65;8.95;;;;;;;;;;4195387;34;20144;-48
2021/01/12 08:37:27;;;;;;;11.55;9.15;;;;;;;;;;4172857;34;20662;-54
2021/01/12 08:39:54;;;;;;;10.32;9.13;;;;;;;;;;4170928;34;20133;-48
2021/01/12 08:42:22;;;;;;;12.40;8.45;;;;;;;;;;4182316;34;20186;-53
2021/01/12 08:44:49;;;;;;;11.98;8.88;;;;;;;;;;4194956;34;20094;-48
2021/01/12 08:47:16;;;;;;;10.23;9.10;;;;;;;;;;4182443;34;20125;-51
2021/01/12 08:49:43;;;;;;;10.20;8.70;;;;;;;;;;4182499;34;20114;-47
2021/01/12 08:52:09;;;;;;;11.30;8.80;;;;;;;;;;4182487;34;20128;-44
2021/01/12 08:54:36;;;;;;;10.02;8.82;;;;;;;;;;4171066;34;20225;-46
2021/01/12 08:57:04;;;;;;;10.55;8.35;;;;;;;;;;4170900;34;20529;-52
2021/01/12 08:59:34;;;;;;;11.20;8.10;;;;;;;;;;4194974;34;20105;-52
2021/01/12 09:02:01;;;;;;;10.90;8.90;;;;;;;;;;4182247;34;20149;-51
2021/01/12 09:04:28;;;;;;;12.52;8.60;;;;;;;;;;4194954;34;20172;-51
2021/01/12 09:07:07;;;;;;;11.00;8.52;;;;;;;;;;4173696;34;20097;-51
2021/01/12 09:09:37;;;;;;;9.73;8.55;;;;;;;;;;4184475;34;20185;-46
2021/01/12 09:12:14;;;;;;;9.48;8.30;;;;;;;;;;4187358;34;20473;-51
2021/01/12 09:14:51;;;;;;;12.23;10.88;;;;;;;;;;4177594;34;20116;-46
2021/01/12 09:17:29;;;;;;;12.82;9.07;;;;;;;;;;4188418;34;20089;-50
2021/01/12 09:20:08;;;;;;;18.52;8.90;;;;;;;;;;4186610;34;20203;-51
2021/01/12 09:22:45;;;;;;;10.77;8.93;;;;;;;;;;4184099;34;20114;-49
2021/01/12 09:25:13;;;;;;;11.12;8.38;;;;;;;;;;4191836;34;20106;-42
2021/01/12 09:27:43;;;;;;;9.18;7.70;;;;;;;;;;4166130;34;20149;-48
2021/01/12 09:30:27;;;;;;;18.33;8.50;;;;;;;;;;4178494;34;20110;-49
2021/01/12 09:37:15;;;;;;;10.52;8.55;;;;;;;;;;4273646;28;20589;-47
2021/01/12 09:39:45;;;;;;;11.27;8.98;;;;;;;;;;4199282;34;20527;-54
2021/01/12 09:46:41;;;;;;;13.10;7.97;;;;;;;;;;4208691;28;20331;-48
2021/01/12 09:49:20;;;;;;;10.63;9.23;;;;;;;;;;4203935;34;20110;-49
2021/01/12 09:52:00;;;;;;;10.25;8.75;;;;;;;;;;4182375;34;20102;-50
2021/01/12 09:54:50;;;;;;;11.70;9.43;;;;;;;;;;4205468;34;20115;-48
2021/01/12 09:58:06;;;;;;;9.45;8.45;;;;;;;;;;4205570;34;20239;-47
2021/01/12 10:00:51;;;;;;;11.57;8.93;;;;;;;;;;4205134;34;20110;-49
2021/01/12 10:07:01;;;;;;;11.12;9.07;;;;;;;;;;4237443;28;20112;-54
2021/01/12 10:09:31;;;;;;;9.40;8.32;;;;;;;;;;4221546;33;20093;-47
2021/01/12 10:15:33;;;;;;;13.00;8.40;;;;;;;;;;4232720;33;20095;-46
2021/01/12 10:17:59;;;;;;;11.48;8.52;;;;;;;;;;4223530;33;20145;-50
2021/01/12 10:20:31;;;;;;;10.10;9.05;;;;;;;;;;4218993;34;20184;-50
2021/01/12 10:23:10;;;;;;;11.02;8.82;;;;;;;;;;4226818;33;20127;-47
2021/01/12 10:25:56;;;;;;;10.13;9.00;;;;;;;;;;4232341;33;20136;-47
2021/01/12 10:28:25;;;;;;;11.40;9.88;;;;;;;;;;4233771;33;20173;-50
2021/01/12 10:30:55;;;;;;;11.32;8.77;;;;;;;;;;4233321;33;20168;-52
2021/01/12 10:33:30;;;;;;;11.57;8.50;;;;;;;;;;4220668;33;20203;-45
2021/01/12 10:36:26;;;;;;;11.02;8.85;;;;;;;;;;4232754;33;20188;-47
2021/01/12 10:39:26;;;;;;;10.38;8.18;;;;;;;;;;4233278;33;20536;-51
2021/01/12 10:42:14;;;;;;;12.07;9.73;;;;;;;;;;4219455;33;20089;-49
2021/01/12 10:44:50;;;;;;;10.38;8.40;;;;;;;;;;4218685;34;20124;-55
2021/01/12 10:48:07;;;;;;;10.95;8.77;;;;;;;;;;4210566;33;20546;-53
2021/01/12 10:50:43;;;;;;;10.45;9.13;;;;;;;;;;4213238;33;20113;-53
2021/01/12 10:53:34;;;;;;;12.30;9.68;;;;;;;;;;4206522;33;20265;-51
2021/01/12 10:56:08;;;;;;;10.63;9.20;;;;;;;;;;4232185;33;20307;-51
2021/01/12 10:58:48;;;;;;;10.32;9.13;;;;;;;;;;4207683;33;20182;-49
2021/01/12 11:01:26;;;;;;;11.90;9.02;;;;;;;;;;4223203;33;20125;-52
2021/01/12 11:04:01;;;;;;;12.88;10.82;;;;;;;;;;4218083;34;20105;-50
2021/01/12 11:06:42;;;;;;;11.43;9.13;;;;;;;;;;4195370;34;20282;-50
2021/01/12 11:09:11;;;;;;;;;;;;;;;;;;4219202;34;20094;-54
2021/01/12 11:11:49;;;;;;;9.85;8.75;;;;;;;;;;4219297;34;19972;-48
2021/01/12 11:14:28;;;;;;;12.93;9.05;;;;;;;;;;4213029;33;20094;-49
2021/01/12 11:17:02;;;;;;;12.73;10.95;;;;;;;;;;4233109;33;20102;-49
2021/01/12 11:19:47;;;;;;;14.52;10.95;;;;;;;;;;4232623;33;20128;-51
2021/01/12 11:22:41;;;;;;;15.65;13.45;;;;;;;;;;4233070;33;20120;-45
2021/01/12 11:25:17;;;;;;;16.95;13.98;;;;;;;;;;4222007;33;20200;-54
2021/01/12 11:27:52;;;;;;;15.75;13.90;;;;;;;;;;4207033;34;20172;-52
2021/01/12 11:30:26;;;;;;;17.30;14.90;;;;;;;;;;4206000;34;20188;-52
2021/01/12 11:33:03;;;;;;;18.37;15.75;;;;;;;;;;4218600;34;20112;-50
2021/01/12 11:35:38;;;;;;;21.77;16.98;;;;;;;;;;4206470;34;20101;-51
2021/01/12 11:38:11;;;;;;;21.67;18.50;;;;;;;;;;4217929;34;20228;-47
2021/01/12 11:40:41;;;;;;;21.50;16.50;;;;;;;;;;4218548;34;20113;-54
2021/01/12 11:43:16;;;;;;;14.35;11.27;;;;;;;;;;4206518;34;20136;-47
2021/01/12 11:45:50;;;;;;;12.07;9.63;;;;;;;;;;4218726;34;20097;-46
2021/01/12 11:48:22;;;;;;;14.48;11.07;;;;;;;;;;4206674;34;20116;-46
2021/01/12 11:51:06;;;;;;;12.65;11.32;;;;;;;;;;4222677;33;20235;-53
2021/01/12 11:53:36;;;;;;;12.73;10.95;;;;;;;;;;4232319;33;20277;-53
2021/01/12 11:56:10;;;;;;;13.52;12.13;;;;;;;;;;4227578;33;20228;-49
2021/01/12 11:58:42;;;;;;;13.20;10.77;;;;;;;;;;4218285;34;20547;-50
2021/01/12 12:01:16;;;;;;;15.25;13.25;;;;;;;;;;4228941;33;20475;-53
2021/01/12 12:03:52;;;;;;;13.43;12.07;;;;;;;;;;4232802;33;20200;-50
2021/01/12 12:06:23;;;;;;;12.90;11.18;;;;;;;;;;4225877;33;20100;-52
2021/01/12 12:08:53;;;;;;;11.93;9.35;;;;;;;;;;4194301;34;20505;-48
2021/01/12 12:11:41;;;;;;;10.27;9.15;;;;;;;;;;4218253;33;20108;-49
2021/01/12 12:14:12;;;;;;;11.05;9.27;;;;;;;;;;4207015;34;20124;-50
2021/01/12 12:16:47;;;;;;;14.52;9.60;;;;;;;;;;4231001;33;20178;-46
2021/01/12 12:19:30;;;;;;;20.12;14.38;;;;;;;;;;4220678;33;20523;-53
2021/01/12 12:22:04;;;;;;;14.95;11.65;;;;;;;;;;4216966;34;20112;-50
2021/01/12 12:24:56;;;;;;;11.45;10.35;;;;;;;;;;4205239;33;20198;-53
2021/01/12 12:27:27;;;;;;;14.60;11.30;;;;;;;;;;4219117;33;20105;-53
2021/01/12 12:30:20;;;;;;;16.48;11.20;;;;;;;;;;4218416;34;20528;-52
2021/01/12 12:33:00;;;;;;;16.55;10.60;;;;;;;;;;4218423;34;20141;-50
2021/01/12 12:35:35;;;;;;;17.07;14.77;;;;;;;;;;4206564;34;20133;-49
2021/01/12 12:38:09;;;;;;;15.40;13.30;;;;;;;;;;4218538;34;20194;-48
2021/01/12 12:40:39;;;;;;;14.63;11.75;;;;;;;;;;4212569;33;20212;-51
2021/01/12 12:43:19;;;;;;;13.40;11.15;;;;;;;;;;4232205;33;20105;-49
2021/01/12 12:45:56;;;;;;;13.65;11.40;;;;;;;;;;4211253;34;20225;-48
2021/01/12 12:48:27;;;;;;;15.98;10.80;;;;;;;;;;4218238;33;20090;-48
2021/01/12 12:51:03;;;;;;;12.88;9.88;;;;;;;;;;4229211;33;20219;-51
2021/01/12 12:53:38;;;;;;;14.25;11.75;;;;;;;;;;4218586;34;20114;-57
2021/01/12 12:56:33;;;;;;;15.82;10.88;;;;;;;;;;4220295;33;20101;-53
2021/01/12 13:02:31;;;;;;;39.65;30.95;;;;;;;;;;4223443;33;20108;-55
2021/01/12 13:05:33;;;;;;;34.42;26.77;;;;;;;;;;4259348;28;20143;-46
2021/01/12 13:12:10;;;;;;;28.60;23.55;;;;;;;;;;4197163;34;20113;-54
2021/01/12 13:14:39;;;;;;;33.03;25.77;;;;;;;;;;4205848;34;20106;-46
2021/01/12 13:17:05;;;;;;;33.92;28.05;;;;;;;;;;4220120;34;20089;-56
2021/01/12 13:19:33;;;;;;;38.10;29.80;;;;;;;;;;4214194;34;20101;-52
2021/01/12 13:22:13;;;;;;;38.53;30.45;;;;;;;;;;4206307;34;20107;-55
2021/01/12 13:24:40;;;;;;;45.10;37.92;;;;;;;;;;4205679;34;20200;-47
2021/01/12 13:27:11;;;;;;;56.33;43.78;;;;;;;;;;4205896;34;20082;-53
2021/01/12 13:29:45;;;;;;;68.35;52.35;;;;;;;;;;4181943;34;20165;-51
2021/01/12 13:32:21;;;;;;;64.53;51.63;;;;;;;;;;4206099;34;20121;-54
2021/01/12 13:34:59;;;;;;;67.40;53.35;;;;;;;;;;4183826;34;20117;-52
2021/01/12 13:37:29;;;;;;;70.03;55.12;;;;;;;;;;4209927;34;20533;-46
2021/01/12 13:40:16;;;;;;;75.10;57.85;;;;;;;;;;4210022;34;20120;-50
2021/01/12 13:43:12;;;;;;;71.82;53.40;;;;;;;;;;4213392;34;20560;-54
2021/01/12 13:46:22;;;;;;;62.20;48.00;;;;;;;;;;4205257;34;20124;-46
2021/01/12 13:51:46;;;;;;;48.67;38.05;;;;;;;;;;4232695;29;20181;-54
2021/01/12 13:58:24;;;;;;;46.85;35.08;;;;;;;;;;4217164;33;20220;-49
2021/01/12 14:02:05;;;;;;;53.42;37.78;;;;;;;;;;4224205;33;20228;-49
2021/01/12 14:04:44;;;;;;;49.03;37.28;;;;;;;;;;4227191;33;20124;-53
2021/01/12 14:07:42;;;;;;;50.67;36.58;;;;;;;;;;4226933;33;20073;-56
2021/01/12 14:10:58;;;;;;;50.17;35.78;;;;;;;;;;4225300;33;20105;-52
2021/01/12 14:13:25;;;;;;;49.13;36.22;;;;;;;;;;4202054;33;20567;-56
2021/01/12 14:15:55;;;;;;;45.25;36.13;;;;;;;;;;4225562;33;20225;-55
2021/01/12 14:18:39;;;;;;;42.85;33.95;;;;;;;;;;4225661;33;20208;-51
2021/01/12 14:21:28;;;;;;;41.60;33.45;;;;;;;;;;4225033;33;20097;-56
2021/01/12 14:24:22;;;;;;;42.75;31.27;;;;;;;;;;4230806;33;20133;-54
2021/01/12 14:27:01;;;;;;;40.47;31.12;;;;;;;;;;4216469;33;20102;-50
2021/01/12 14:29:52;;;;;;;39.72;30.95;;;;;;;;;;4217277;33;20549;-51
2021/01/12 14:32:41;;;;;;;41.00;29.58;;;;;;;;;;4224391;33;20455;-46
2021/01/12 14:47:22;;;;;;;36.80;28.85;;;;;;;;;;4160788;34;20129;-50
2021/01/12 14:49:56;;;;;;;41.67;32.05;;;;;;;;;;4155364;34;20476;-51
2021/01/12 14:52:38;;;;;;;41.40;32.90;;;;;;;;;;4176643;34;20544;-52
2021/01/12 15:02:15;;;;;;;38.80;30.77;;;;;;;;;;4155547;34;20105;-45
2021/01/12 15:05:01;;;;;;;41.05;30.42;;;;;;;;;;4171768;34;20103;-51
2021/01/12 15:07:53;;;;;;;42.62;35.05;;;;;;;;;;4179180;34;20121;-46
2021/01/12 15:10:39;;;;;;;38.53;29.90;;;;;;;;;;4175751;34;20110;-50
2021/01/12 15:13:09;;;;;;;38.92;28.73;;;;;;;;;;4184006;34;20125;-48
2021/01/12 15:15:40;;;;;;;43.75;32.28;;;;;;;;;;4184947;34;20102;-51
2021/01/12 15:18:17;;;;;;;36.95;29.55;;;;;;;;;;4168068;34;20134;-52
2021/01/12 15:20:48;;;;;;;35.83;27.95;;;;;;;;;;4183573;34;20102;-51
2021/01/12 15:23:15;;;;;;;50.88;36.88;;;;;;;;;;4181900;34;20098;-51
2021/01/12 15:25:49;;;;;;;41.97;33.30;;;;;;;;;;4182761;34;20140;-51
2021/01/12 15:28:17;;;;;;;45.63;33.67;;;;;;;;;;4180048;34;20121;-45
2021/01/12 15:30:53;;;;;;;44.15;34.60;;;;;;;;;;4183558;34;20164;-47
2021/01/12 15:33:25;;;;;;;40.17;32.67;;;;;;;;;;4181182;34;20190;-53
2021/01/12 15:36:01;;;;;;;39.70;30.42;;;;;;;;;;4183591;34;20126;-53
2021/01/12 15:38:29;;;;;;;35.35;30.00;;;;;;;;;;4179825;34;20099;-50
2021/01/12 15:40:56;;;;;;;34.72;27.58;;;;;;;;;;4177264;34;20634;-44
2021/01/12 15:43:26;;;;;;;34.40;28.85;;;;;;;;;;4183787;34;20186;-49
2021/01/12 15:46:03;;;;;;;30.20;23.83;;;;;;;;;;4182039;34;20110;-52
2021/01/12 15:48:37;;;;;;;31.90;26.92;;;;;;;;;;4166489;34;20098;-52